createdAt,value
2022-12-12T00:00:27.282Z,-2.04
2022-12-12T00:02:56.804Z,-2.51
2022-12-12T00:05:28.940Z,-2.69
2022-12-12T00:07:58.532Z,-2.79
2022-12-12T00:10:28.052Z,-2.62
2022-12-12T00:12:57.593Z,-2.32
2022-12-12T00:15:27.721Z,-2.05
2022-12-12T00:17:57.255Z,-1.79
2022-12-12T00:20:29.299Z,-1.35
2022-12-12T00:22:58.779Z,-1.64
2022-12-12T00:25:28.233Z,-1.97
2022-12-12T00:27:57.723Z,-2.32
2022-12-12T00:30:27.311Z,-2.45
2022-12-12T00:32:56.807Z,-2.76
2022-12-12T00:35:28.882Z,-2.68
2022-12-12T00:37:58.330Z,-2.58
2022-12-12T00:40:27.707Z,-2.16
2022-12-12T00:42:57.238Z,-1.51
2022-12-12T00:45:27.420Z,-1.61
2022-12-12T00:47:56.881Z,-2.38
2022-12-12T00:50:28.885Z,-2.76
2022-12-12T00:52:59.176Z,-3.04
2022-12-12T00:55:29.600Z,-3.05
2022-12-12T00:57:58.977Z,-3.14
2022-12-12T01:00:29.019Z,-2.86
2022-12-12T01:02:59.225Z,-2.26
2022-12-12T01:05:31.337Z,-2.24
2022-12-12T01:08:01.434Z,-2.19
2022-12-12T01:10:30.877Z,-2.33
2022-12-12T01:13:00.248Z,-2.86
2022-12-12T01:15:29.637Z,-3.02
2022-12-12T01:17:59.091Z,-3.16
2022-12-12T01:20:31.624Z,-3.09
2022-12-12T01:23:01.014Z,-3.15
2022-12-12T01:25:30.434Z,-3.26
2022-12-12T01:27:59.837Z,-3.18
2022-12-12T01:30:29.548Z,-3.45
2022-12-12T01:32:59.111Z,-3.61
2022-12-12T01:35:31.086Z,-3.48
2022-12-12T01:38:00.446Z,-2.82
2022-12-12T01:40:32.455Z,-3.10
2022-12-12T01:43:02.585Z,-3.42
2022-12-12T01:46:13.965Z,-3.10
2022-12-12T01:48:45.341Z,-3.05
2022-12-12T01:51:19.621Z,-2.92
2022-12-12T01:53:50.481Z,-2.78
2022-12-12T01:56:20.887Z,-3.13
2022-12-12T01:58:52.255Z,-2.85
2022-12-12T02:01:22.412Z,-3.44
2022-12-12T02:03:52.269Z,-3.76
2022-12-12T02:06:26.788Z,-3.40
2022-12-12T02:08:58.447Z,-3.52
2022-12-12T02:11:29.826Z,-2.97
2022-12-12T02:14:00.374Z,-3.27
2022-12-12T02:16:41.634Z,-3.62
2022-12-12T02:19:27.423Z,-3.82
2022-12-12T02:22:02.794Z,-3.03
2022-12-12T02:25:10.790Z,-2.87
2022-12-12T02:28:10.104Z,-3.01
2022-12-12T02:30:43.890Z,-2.86
2022-12-12T02:33:32.651Z,-2.76
2022-12-12T02:36:14.085Z,-3.15
2022-12-12T02:38:49.939Z,-3.43
2022-12-12T02:41:28.132Z,-3.68
2022-12-12T02:44:04.044Z,-3.89
2022-12-12T02:46:39.708Z,-3.94
2022-12-12T02:49:16.591Z,-3.71
2022-12-12T02:51:47.203Z,-3.30
2022-12-12T02:54:18.012Z,-3.01
2022-12-12T02:56:50.955Z,-3.13
2022-12-12T02:59:27.950Z,-3.57
2022-12-12T03:02:09.397Z,-3.81
2022-12-12T03:05:04.401Z,-3.63
2022-12-12T03:07:50.369Z,-3.60
2022-12-12T03:10:29.002Z,-3.42
2022-12-12T03:13:01.353Z,-3.34
2022-12-12T03:15:34.023Z,-3.24
2022-12-12T03:18:13.213Z,-3.57
2022-12-12T03:20:48.138Z,-4.30
2022-12-12T03:23:19.312Z,-3.82
2022-12-12T03:25:53.169Z,-3.53
2022-12-12T03:28:26.811Z,-3.17
2022-12-12T03:30:58.441Z,-2.95
2022-12-12T03:33:31.969Z,-2.55
2022-12-12T03:36:10.762Z,-1.92
2022-12-12T03:38:43.209Z,-1.76
2022-12-12T03:41:16.096Z,-1.73
2022-12-12T03:43:48.864Z,-2.21
2022-12-12T03:46:21.039Z,-1.98
2022-12-12T03:48:52.160Z,-1.82
2022-12-12T03:51:28.688Z,-2.21
2022-12-12T03:54:01.106Z,-2.19
2022-12-12T03:56:34.220Z,-3.75
2022-12-12T03:59:07.277Z,-4.07
2022-12-12T04:01:43.644Z,-4.08
2022-12-12T04:04:17.240Z,-4.08
2022-12-12T04:06:53.397Z,-4.26
2022-12-12T04:09:35.713Z,-4.33
2022-12-12T04:12:23.963Z,-4.38
2022-12-12T04:15:15.817Z,-4.40
2022-12-12T04:17:48.627Z,-4.84
2022-12-12T04:20:38.213Z,-4.70
2022-12-12T04:23:18.502Z,-4.65
2022-12-12T04:26:09.384Z,-4.61
2022-12-12T04:28:39.903Z,-4.70
2022-12-12T04:31:09.912Z,-4.82
2022-12-12T04:33:43.518Z,-4.78
2022-12-12T04:36:14.408Z,-4.79
2022-12-12T04:38:47.915Z,-5.08
2022-12-12T04:41:17.752Z,-4.90
2022-12-12T04:43:49.153Z,-4.91
2022-12-12T04:46:20.655Z,-4.91
2022-12-12T04:48:54.905Z,-5.03
2022-12-12T04:51:27.645Z,-5.06
2022-12-12T04:54:03.451Z,-4.95
2022-12-12T04:56:33.832Z,-4.91
2022-12-12T04:59:03.352Z,-4.84
2022-12-12T05:01:37.847Z,-4.90
2022-12-12T05:04:11.972Z,-4.98
2022-12-12T05:06:44.608Z,-4.91
2022-12-12T05:09:17.903Z,-4.83
2022-12-12T05:11:47.355Z,-4.85
2022-12-12T05:14:17.997Z,-5.15
2022-12-12T05:16:50.538Z,-5.39
2022-12-12T05:19:20.028Z,-5.18
2022-12-12T05:21:49.422Z,-5.17
2022-12-12T05:24:21.432Z,-5.19
2022-12-12T05:26:50.904Z,-5.16
2022-12-12T05:29:20.402Z,-5.14
2022-12-12T05:31:49.900Z,-5.16
2022-12-12T05:34:19.304Z,-5.21
2022-12-12T05:36:48.698Z,-5.17
2022-12-12T05:39:20.782Z,-5.17
2022-12-12T05:41:50.215Z,-5.08
2022-12-12T05:44:19.603Z,-5.37
2022-12-12T05:46:49.001Z,-5.40
2022-12-12T05:49:18.374Z,-4.41
2022-12-12T05:51:47.938Z,-4.10
2022-12-12T05:54:17.334Z,-3.53
2022-12-12T05:56:49.357Z,-4.16
2022-12-12T05:59:19.085Z,-5.14
2022-12-12T06:01:48.597Z,-5.52
2022-12-12T06:04:18.140Z,-5.60
2022-12-12T06:06:48.259Z,-5.63
2022-12-12T06:09:17.920Z,-5.57
2022-12-12T06:11:49.935Z,-5.53
2022-12-12T06:14:19.400Z,-5.52
2022-12-12T06:16:48.786Z,-5.47
2022-12-12T06:19:18.377Z,-5.31
2022-12-12T06:21:47.894Z,-5.32
2022-12-12T06:24:17.295Z,-5.27
2022-12-12T06:26:46.725Z,-5.23
2022-12-12T06:29:18.769Z,-5.36
2022-12-12T06:31:48.268Z,-5.54
2022-12-12T06:34:18.031Z,-5.65
2022-12-12T06:36:47.473Z,-5.70
2022-12-12T06:39:16.935Z,-5.61
2022-12-12T06:41:46.660Z,-5.61
2022-12-12T06:44:18.922Z,-5.62
2022-12-12T06:46:48.354Z,-5.67
2022-12-12T06:49:17.858Z,-5.62
2022-12-12T06:51:48.797Z,-5.62
2022-12-12T06:54:20.035Z,-5.74
2022-12-12T06:56:49.470Z,-5.85
2022-12-12T06:59:21.752Z,-6.02
2022-12-12T07:01:51.353Z,-6.22
2022-12-12T07:04:20.883Z,-6.17
2022-12-12T07:06:50.427Z,-6.05
2022-12-12T07:09:20.490Z,-6.04
2022-12-12T07:11:49.983Z,-5.99
2022-12-12T07:14:22.078Z,-5.90
2022-12-12T07:16:51.590Z,-5.84
2022-12-12T07:19:22.735Z,-5.91
2022-12-12T07:21:52.364Z,-5.97
2022-12-12T07:24:21.795Z,-6.02
2022-12-12T07:26:51.214Z,-5.97
2022-12-12T07:29:23.265Z,-6.21
2022-12-12T07:31:52.766Z,-6.17
2022-12-12T07:34:22.226Z,-6.33
2022-12-12T07:36:51.991Z,-6.41
2022-12-12T07:39:21.461Z,-6.21
2022-12-12T07:41:50.989Z,-6.15
2022-12-12T07:44:23.039Z,-6.04
2022-12-12T07:46:52.501Z,-5.93
2022-12-12T07:49:22.269Z,-5.92
2022-12-12T07:51:51.786Z,-5.93
2022-12-12T07:54:21.220Z,-5.91
2022-12-12T07:56:50.749Z,-6.16
2022-12-12T07:59:22.820Z,-6.25
2022-12-12T08:01:52.422Z,-6.15
2022-12-12T08:04:21.927Z,-6.34
2022-12-12T08:06:57.605Z,-6.23
2022-12-12T08:09:30.287Z,-6.19
2022-12-12T08:11:59.809Z,-6.18
2022-12-12T08:14:32.241Z,-6.18
2022-12-12T08:17:01.692Z,-6.01
2022-12-12T08:19:31.142Z,-5.94
2022-12-12T08:22:00.656Z,-5.83
2022-12-12T08:24:30.553Z,-5.89
2022-12-12T08:27:00.075Z,-5.87
2022-12-12T08:29:32.140Z,-5.89
2022-12-12T08:32:03.245Z,-5.85
2022-12-12T08:34:32.713Z,-5.78
2022-12-12T08:37:02.206Z,-5.74
2022-12-12T08:39:31.715Z,-5.64
2022-12-12T08:42:01.415Z,-5.62
2022-12-12T08:44:33.524Z,-5.59
2022-12-12T08:47:03.012Z,-5.68
2022-12-12T08:49:32.441Z,-5.71
2022-12-12T08:52:02.012Z,-5.71
2022-12-12T08:54:31.569Z,-5.70
2022-12-12T08:57:01.069Z,-5.69
2022-12-12T08:59:33.453Z,-5.64
2022-12-12T09:02:03.059Z,-5.70
2022-12-12T09:04:32.592Z,-5.60
2022-12-12T09:07:08.068Z,-5.46
2022-12-12T09:09:38.121Z,-5.49
2022-12-12T09:12:08.208Z,-5.46
2022-12-12T09:14:40.528Z,-5.36
2022-12-12T09:17:09.984Z,-5.38
2022-12-12T09:19:39.491Z,-5.44
2022-12-12T09:22:08.992Z,-5.29
2022-12-12T09:24:38.502Z,-5.23
2022-12-12T09:27:08.260Z,-5.28
2022-12-12T09:29:40.392Z,-5.30
2022-12-12T09:32:09.936Z,-5.25
2022-12-12T09:34:39.740Z,-5.28
2022-12-12T09:37:09.547Z,-5.23
2022-12-12T09:39:39.179Z,-5.25
2022-12-12T09:42:13.517Z,-5.23
2022-12-12T09:44:45.691Z,-5.24
2022-12-12T09:47:18.469Z,-5.17
2022-12-12T09:49:50.480Z,-5.09
2022-12-12T09:52:25.214Z,-5.01
2022-12-12T09:54:58.941Z,-4.91
2022-12-12T09:57:31.867Z,-4.94
2022-12-12T10:00:08.090Z,-4.87
2022-12-12T10:02:51.521Z,-4.82
2022-12-12T10:05:27.376Z,-4.72
2022-12-12T10:08:02.048Z,-4.69
2022-12-12T10:10:35.198Z,-4.58
2022-12-12T10:13:06.192Z,-4.52
2022-12-12T10:15:40.629Z,-4.47
2022-12-12T10:18:14.775Z,-4.52
2022-12-12T10:20:48.717Z,-4.47
2022-12-12T10:23:22.621Z,-4.29
2022-12-12T10:25:56.317Z,-3.99
2022-12-12T10:28:28.093Z,-3.76
2022-12-12T10:31:20.353Z,-3.52
2022-12-12T10:34:15.277Z,-2.83
2022-12-12T10:36:54.971Z,-3.06
2022-12-12T10:39:31.478Z,-3.91
2022-12-12T10:42:05.110Z,-4.09
2022-12-12T10:44:50.893Z,-4.15
2022-12-12T10:47:22.871Z,-3.32
2022-12-12T10:49:52.970Z,-3.02
2022-12-12T10:52:23.931Z,-3.28
2022-12-12T10:54:54.959Z,-2.97
2022-12-12T10:57:25.332Z,-3.06
2022-12-12T10:59:56.419Z,-3.02
2022-12-12T11:02:43.940Z,-3.60
2022-12-12T11:05:19.716Z,-3.42
2022-12-12T11:07:51.254Z,-2.90
2022-12-12T11:10:33.986Z,-2.55
2022-12-12T11:13:06.170Z,-3.01
2022-12-12T11:15:42.064Z,-3.41
2022-12-12T11:18:18.604Z,-3.84
2022-12-12T11:20:49.694Z,-4.19
2022-12-12T11:23:22.378Z,-4.25
2022-12-12T11:25:58.013Z,-4.24
2022-12-12T11:28:30.936Z,-4.23
2022-12-12T11:31:00.336Z,-4.07
2022-12-12T11:33:35.101Z,-4.05
2022-12-12T11:36:06.589Z,-4.10
2022-12-12T11:38:40.738Z,-4.09
2022-12-12T11:41:12.174Z,-4.23
2022-12-12T11:43:55.896Z,-4.25
2022-12-12T11:46:27.948Z,-4.25
2022-12-12T11:49:07.567Z,-4.15
2022-12-12T11:51:39.851Z,-4.07
2022-12-12T11:54:15.236Z,-4.13
2022-12-12T11:56:48.073Z,-4.13
2022-12-12T11:59:38.980Z,-4.20
2022-12-12T12:02:23.836Z,-4.03
2022-12-12T12:05:06.499Z,-4.05
2022-12-12T12:07:54.508Z,-4.03
2022-12-12T12:10:33.259Z,-3.91
2022-12-12T12:13:08.209Z,-3.91
2022-12-12T12:15:41.172Z,-3.94
2022-12-12T12:18:41.307Z,-3.78
2022-12-12T12:21:35.466Z,-3.57
2022-12-12T12:24:29.639Z,-3.62
2022-12-12T12:27:05.494Z,-3.65
2022-12-12T12:29:56.993Z,-3.57
2022-12-12T12:32:35.059Z,-3.25
2022-12-12T12:35:13.764Z,-2.50
2022-12-12T12:37:55.406Z,-2.39
2022-12-12T12:40:35.228Z,-2.99
2022-12-12T12:43:16.910Z,-2.52
2022-12-12T12:45:49.475Z,-2.11
2022-12-12T12:48:22.502Z,-1.95
2022-12-12T12:50:55.709Z,-1.80
2022-12-12T12:53:33.393Z,-1.92
2022-12-12T12:56:07.070Z,-1.51
2022-12-12T12:58:43.148Z,-1.57
2022-12-12T13:01:16.525Z,-1.27
2022-12-12T13:03:49.650Z,-1.24
2022-12-12T13:06:22.854Z,-1.33
2022-12-12T13:09:00.036Z,-0.99
2022-12-12T13:11:32.092Z,-0.88
2022-12-12T13:14:08.805Z,-0.67
2022-12-12T13:16:38.404Z,-0.74
2022-12-12T13:19:12.515Z,-0.81
2022-12-12T13:21:47.508Z,-0.81
2022-12-12T13:24:23.044Z,-0.60
2022-12-12T13:27:00.460Z,-0.98
2022-12-12T13:29:34.717Z,-0.89
2022-12-12T13:32:25.957Z,-0.90
2022-12-12T13:34:58.597Z,-1.48
2022-12-12T13:37:28.300Z,-1.82
2022-12-12T13:40:06.761Z,-2.39
2022-12-12T13:42:54.902Z,-2.35
2022-12-12T13:45:42.981Z,-2.16
2022-12-12T13:48:30.622Z,-2.23
2022-12-12T13:51:31.055Z,-1.81
2022-12-12T13:54:30.346Z,-1.37
2022-12-12T13:57:15.952Z,-1.10
2022-12-12T14:00:19.532Z,-0.98
2022-12-12T14:03:01.323Z,-0.53
2022-12-12T14:05:33.571Z,-0.62
2022-12-12T14:08:21.942Z,-0.63
2022-12-12T14:10:57.617Z,-0.64
2022-12-12T14:13:50.728Z,-0.73
2022-12-12T14:16:23.874Z,-1.02
2022-12-12T14:19:19.863Z,-1.46
2022-12-12T14:21:50.380Z,-1.95
2022-12-12T14:24:48.467Z,-2.17
2022-12-12T14:27:18.052Z,-2.27
2022-12-12T14:29:50.046Z,-2.48
2022-12-12T14:32:38.196Z,-2.60
2022-12-12T14:35:24.015Z,-2.74
2022-12-12T14:37:59.224Z,-2.81
2022-12-12T14:40:30.731Z,-2.96
2022-12-12T14:43:19.629Z,-2.94
2022-12-12T14:45:59.433Z,-2.99
2022-12-12T14:48:30.567Z,-3.01
2022-12-12T14:51:09.171Z,-3.08
2022-12-12T14:53:46.973Z,-3.12
2022-12-12T14:56:18.830Z,-3.16
2022-12-12T14:58:50.696Z,-3.16
2022-12-12T15:01:32.975Z,-3.15
2022-12-12T15:04:03.415Z,-3.27
2022-12-12T15:06:37.883Z,-3.36
2022-12-12T15:09:22.934Z,-3.31
2022-12-12T15:11:53.622Z,-3.40
2022-12-12T15:14:26.526Z,-3.46
2022-12-12T15:17:03.136Z,-3.54
2022-12-12T15:19:34.185Z,-3.70
2022-12-12T15:22:03.635Z,-3.74
2022-12-12T15:24:39.969Z,-3.75
2022-12-12T15:27:09.839Z,-3.75
2022-12-12T15:29:40.453Z,-3.69
2022-12-12T15:32:19.502Z,-3.74
2022-12-12T15:34:50.295Z,-3.72
2022-12-12T15:37:26.222Z,-3.76
2022-12-12T15:40:17.523Z,-3.89
2022-12-12T15:42:50.497Z,-3.97
2022-12-12T15:45:27.478Z,-3.96
2022-12-12T15:48:00.217Z,-4.02
2022-12-12T15:50:33.036Z,-4.01
2022-12-12T15:53:08.917Z,-4.14
2022-12-12T15:55:38.759Z,-4.42
2022-12-12T15:58:08.371Z,-4.69
2022-12-12T16:00:40.741Z,-4.68
2022-12-12T16:03:25.029Z,-4.66
2022-12-12T16:06:03.275Z,-4.63
2022-12-12T16:08:42.154Z,-4.41
2022-12-12T16:11:39.345Z,-4.32
2022-12-12T16:14:26.589Z,-4.34
2022-12-12T16:17:00.046Z,-4.43
2022-12-12T16:19:47.612Z,-4.45
2022-12-12T16:22:21.426Z,-4.47
2022-12-12T16:24:53.338Z,-4.53
2022-12-12T16:27:22.907Z,-4.63
2022-12-12T16:29:52.454Z,-4.62
2022-12-12T16:32:23.083Z,-4.67
2022-12-12T16:34:55.208Z,-4.80
2022-12-12T16:37:24.609Z,-5.02
2022-12-12T16:39:54.035Z,-5.12
2022-12-12T16:42:24.140Z,-5.16
2022-12-12T16:44:53.636Z,-5.09
2022-12-12T16:47:25.013Z,-4.99
2022-12-12T16:49:56.997Z,-5.06
2022-12-12T16:52:26.631Z,-5.06
2022-12-12T16:54:56.142Z,-5.17
2022-12-12T16:57:25.596Z,-5.45
2022-12-12T16:59:55.183Z,-5.60
2022-12-12T17:02:25.771Z,-5.72
2022-12-12T17:04:57.843Z,-5.74
2022-12-12T17:07:27.313Z,-5.72
2022-12-12T17:09:56.827Z,-5.70
2022-12-12T17:12:26.372Z,-5.56
2022-12-12T17:14:55.792Z,-5.45
2022-12-12T17:17:25.209Z,-5.44
2022-12-12T17:19:57.189Z,-5.38
2022-12-12T17:22:26.682Z,-5.46
2022-12-12T17:24:56.081Z,-4.87
2022-12-12T17:27:25.519Z,-2.66
2022-12-12T17:29:54.888Z,-2.11
2022-12-12T17:32:24.705Z,-3.41
2022-12-12T17:34:56.789Z,-4.31
2022-12-12T17:37:26.300Z,-4.49
2022-12-12T17:39:55.827Z,-4.36
2022-12-12T17:42:25.404Z,-4.16
2022-12-12T17:44:55.086Z,-4.36
2022-12-12T17:47:24.524Z,-4.31
2022-12-12T17:49:54.012Z,-3.98
2022-12-12T17:52:26.007Z,-4.10
2022-12-12T17:55:54.206Z,-4.71
2022-12-12T17:57:47.594Z,-5.22
2022-12-12T18:00:17.840Z,-4.92
2022-12-12T18:02:47.340Z,-4.08
2022-12-12T18:05:19.681Z,-4.32
2022-12-12T18:07:51.744Z,-3.64
2022-12-12T18:10:21.267Z,-3.77
2022-12-12T18:12:51.909Z,-3.78
2022-12-12T18:15:21.696Z,-3.89
2022-12-12T18:17:51.176Z,-4.16
2022-12-12T18:20:20.755Z,-4.05
2022-12-12T18:22:52.917Z,-4.04
2022-12-12T18:25:22.299Z,-4.35
2022-12-12T18:27:51.707Z,-4.49
2022-12-12T18:30:21.317Z,-4.25
2022-12-12T18:32:50.763Z,-4.56
2022-12-12T18:35:20.473Z,-4.98
2022-12-12T18:37:52.561Z,-5.13
2022-12-12T18:40:24.692Z,-5.17
2022-12-12T18:42:54.205Z,-5.24
2022-12-12T18:45:24.014Z,-5.25
2022-12-12T18:47:55.095Z,-5.23
2022-12-12T18:50:24.614Z,-5.23
2022-12-12T18:52:56.698Z,-5.25
2022-12-12T18:55:29.935Z,-5.22
2022-12-12T18:58:01.005Z,-5.39
2022-12-12T19:00:30.480Z,-4.54
2022-12-12T19:02:59.953Z,-2.75
2022-12-12T19:05:30.879Z,-2.00
2022-12-12T19:08:02.958Z,-2.22
2022-12-12T19:10:32.507Z,-1.45
2022-12-12T19:13:01.972Z,-3.08
2022-12-12T19:15:31.416Z,-3.92
2022-12-12T19:18:00.976Z,-4.61
2022-12-12T19:20:30.429Z,-4.83
2022-12-12T19:22:59.955Z,-4.94
2022-12-12T19:25:35.139Z,-5.03
2022-12-12T19:28:07.584Z,-5.09
2022-12-12T19:30:38.669Z,-5.05
2022-12-12T19:33:08.125Z,-5.06
2022-12-12T19:35:38.943Z,-4.97
2022-12-12T19:38:08.418Z,-5.02
2022-12-12T19:40:40.671Z,-5.03
2022-12-12T19:43:10.567Z,-5.05
2022-12-12T19:45:40.025Z,-5.03
2022-12-12T19:48:11.352Z,-5.04
2022-12-12T19:50:41.784Z,-4.98
2022-12-12T19:53:12.153Z,-5.04
2022-12-12T19:55:49.040Z,-4.97
2022-12-12T19:58:18.528Z,-4.89
2022-12-12T20:00:50.568Z,-4.94
2022-12-12T20:03:21.574Z,-4.89
2022-12-12T20:05:53.655Z,-4.95
2022-12-12T20:08:23.299Z,-4.94
2022-12-12T20:10:55.399Z,-4.98
2022-12-12T20:13:24.926Z,-5.13
2022-12-12T20:15:54.364Z,-5.30
2022-12-12T20:18:23.870Z,-5.34
2022-12-12T20:20:58.554Z,-5.38
2022-12-12T20:23:28.029Z,-5.33
2022-12-12T20:26:00.324Z,-5.50
2022-12-12T20:28:29.885Z,-5.51
2022-12-12T20:31:06.506Z,-5.55
2022-12-12T20:33:36.438Z,-5.60
2022-12-12T20:36:06.247Z,-5.57
2022-12-12T20:38:37.031Z,-5.66
2022-12-12T20:41:11.998Z,-5.72
2022-12-12T20:43:41.936Z,-5.77
2022-12-12T20:46:13.071Z,-5.69
2022-12-12T20:48:43.107Z,-5.63
2022-12-12T20:51:45.657Z,-5.55
2022-12-12T20:54:05.321Z,-5.53
2022-12-12T20:56:41.578Z,-5.59
2022-12-12T20:59:14.473Z,-5.69
2022-12-12T21:01:44.294Z,-5.88
2022-12-12T21:04:13.758Z,-5.96
2022-12-12T21:06:48.365Z,-5.82
2022-12-12T21:09:24.388Z,-5.88
2022-12-12T21:11:58.979Z,-5.79
2022-12-12T21:14:30.779Z,-5.70
2022-12-12T21:17:00.495Z,-5.77
2022-12-12T21:19:29.939Z,-5.76
2022-12-12T21:21:59.483Z,-5.81
2022-12-12T21:24:30.208Z,-5.66
2022-12-12T21:27:02.238Z,-5.56
2022-12-12T21:29:31.813Z,-5.51
2022-12-12T21:32:01.256Z,-5.47
2022-12-12T21:34:30.794Z,-5.44
2022-12-12T21:37:00.248Z,-5.47
2022-12-12T21:39:31.689Z,-5.57
2022-12-12T21:42:03.710Z,-5.45
2022-12-12T21:44:33.220Z,-5.54
2022-12-12T21:47:02.700Z,-5.61
2022-12-12T21:49:33.455Z,-5.75
2022-12-12T21:52:04.999Z,-5.84
2022-12-12T21:54:35.239Z,-5.79
2022-12-12T21:57:07.793Z,-5.59
2022-12-12T21:59:38.845Z,-5.42
2022-12-12T22:02:10.696Z,-5.33
2022-12-12T22:04:40.296Z,-5.34
2022-12-12T22:07:12.285Z,-5.40
2022-12-12T22:09:42.180Z,-5.52
2022-12-12T22:12:14.273Z,-5.26
2022-12-12T22:14:48.525Z,-5.22
2022-12-12T22:17:18.040Z,-5.30
2022-12-12T22:19:48.579Z,-5.39
2022-12-12T22:22:18.144Z,-5.54
2022-12-12T22:24:47.581Z,-5.62
2022-12-12T22:27:19.720Z,-5.64
2022-12-12T22:29:49.156Z,-5.67
2022-12-12T22:32:18.693Z,-5.76
2022-12-12T22:34:48.611Z,-5.66
2022-12-12T22:37:18.065Z,-5.61
2022-12-12T22:39:47.763Z,-5.83
2022-12-12T22:42:19.878Z,-6.02
2022-12-12T22:44:49.388Z,-6.19
2022-12-12T22:47:18.853Z,-6.29
2022-12-12T22:49:48.299Z,-6.31
2022-12-12T22:52:17.844Z,-6.23
2022-12-12T22:54:47.316Z,-6.19
2022-12-12T22:57:19.344Z,-6.08
2022-12-12T22:59:48.810Z,-5.89
2022-12-12T23:02:24.651Z,-5.78
2022-12-12T23:04:54.715Z,-5.73
2022-12-12T23:07:24.208Z,-5.71
2022-12-12T23:09:55.043Z,-5.69
2022-12-12T23:12:27.335Z,-5.71
2022-12-12T23:14:57.165Z,-5.85
2022-12-12T23:17:26.642Z,-5.93
2022-12-12T23:19:56.080Z,-5.84
2022-12-12T23:22:25.661Z,-5.67
2022-12-12T23:24:55.093Z,-5.58
2022-12-12T23:27:27.213Z,-5.61
2022-12-12T23:29:56.618Z,-5.65
2022-12-12T23:32:26.113Z,-5.66
2022-12-12T23:34:55.653Z,-5.67
2022-12-12T23:37:25.091Z,-5.65
2022-12-12T23:39:54.737Z,-5.60
2022-12-12T23:42:26.760Z,-5.59
2022-12-12T23:44:56.259Z,-5.51
2022-12-12T23:47:25.762Z,-5.42
2022-12-12T23:49:55.282Z,-5.43
2022-12-12T23:52:24.741Z,-5.44
2022-12-12T23:54:54.148Z,-5.52
2022-12-12T23:57:23.606Z,-5.66
2022-12-12T23:59:55.628Z,-5.77
